Terminal Aerodrome Forecast
Issued by NWS

Home | Current Version | Previous Version | Text Only | Print | Product List | Glossary On
Versions: 1 2 3 4 5 6 7 8 9 10 11 12 13 14 15 16 17 18 19 20 21 22 23 24 25 26 27 28 29 30 31 32 33 34 35 36 37 38 39 40 41 42 43 44 45 46
989
FTUS43 KGRB 142320
TAFRHI
TAF
KRHI 142320Z 1500/1524 25004KT 6SM -SHSN OVC025
      TEMPO 1500/1504 2SM -SHSN OVC017
     FM150400 28006KT P6SM -SHSN BKN015
     FM151700 28008KT P6SM -SHSN BKN024=

USA.gov is the U.S. government's official web portal to all federal, state and local government web resources and services.